createdAt,value
2016-11-10T00:00:38.419Z,2.98
2016-11-10T00:01:38.352Z,3.03
2016-11-10T00:02:38.507Z,3.03
2016-11-10T00:03:37.486Z,3.03
2016-11-10T00:04:37.420Z,3.03
2016-11-10T00:05:37.476Z,2.98
2016-11-10T00:06:37.500Z,3
2016-11-10T00:07:37.467Z,3.05
2016-11-10T00:08:37.468Z,3
2016-11-10T00:09:37.477Z,2.98
2016-11-10T00:10:36.796Z,2.87
2016-11-10T00:11:37.528Z,3.03
2016-11-10T00:12:37.547Z,2.91
2016-11-10T00:13:37.229Z,2.95
2016-11-10T00:14:37.592Z,2.95
2016-11-10T00:15:37.577Z,2.95
2016-11-10T00:16:37.687Z,2.98
2016-11-10T00:17:37.652Z,3.03
2016-11-10T00:18:37.417Z,3.01
2016-11-10T00:19:37.638Z,2.98
2016-11-10T00:20:37.637Z,3.03
2016-11-10T00:21:37.694Z,3.03
2016-11-10T00:22:37.678Z,2.98
2016-11-10T00:23:37.678Z,3
2016-11-10T00:24:37.699Z,3.06
2016-11-10T00:25:37.737Z,3.08
2016-11-10T00:26:37.716Z,3.08
2016-11-10T00:27:37.723Z,2.97
2016-11-10T00:28:37.448Z,3.13
2016-11-10T00:29:37.769Z,3.08
2016-11-10T00:30:37.801Z,2.97
2016-11-10T00:31:37.783Z,3.11
2016-11-10T00:32:37.856Z,3.12
2016-11-10T00:33:38.790Z,3
2016-11-10T00:34:37.538Z,3.15
2016-11-10T00:35:37.546Z,2.98
2016-11-10T00:36:37.856Z,3.03
2016-11-10T00:37:37.875Z,3.03
2016-11-10T00:38:37.905Z,3.09
2016-11-10T00:39:37.907Z,3
2016-11-10T00:40:37.928Z,3.09
2016-11-10T00:41:37.620Z,3.18
2016-11-10T00:42:37.957Z,3.03
2016-11-10T00:43:37.976Z,3.06
2016-11-10T00:44:37.976Z,3.03
2016-11-10T00:45:38.139Z,3.15
2016-11-10T00:46:38.005Z,3
2016-11-10T00:47:38.987Z,3.06
2016-11-10T00:48:37.655Z,3.18
2016-11-10T00:49:38.098Z,3.19
2016-11-10T00:50:38.056Z,3.15
2016-11-10T00:51:38.065Z,3.16
2016-11-10T00:52:38.107Z,3.09
2016-11-10T00:53:38.103Z,3.01
2016-11-10T00:54:38.116Z,3.11
2016-11-10T00:55:38.126Z,3.09
2016-11-10T00:56:38.366Z,3.03
2016-11-10T00:57:39.214Z,3.03
2016-11-10T00:58:39.150Z,3.15
2016-11-10T00:59:39.166Z,3.05
2016-11-10T01:00:37.882Z,3.12
2016-11-10T01:01:39.279Z,3
2016-11-10T01:02:38.230Z,3.09
2016-11-10T01:03:37.936Z,3.09
2016-11-10T01:04:37.958Z,3.16
2016-11-10T01:05:38.255Z,3.11
2016-11-10T01:06:38.286Z,3.09
2016-11-10T01:07:38.303Z,3.03
2016-11-10T01:08:38.303Z,3.01
2016-11-10T01:09:39.241Z,3.03
2016-11-10T01:10:39.313Z,3.03
2016-11-10T01:11:38.043Z,3.01
2016-11-10T01:12:39.345Z,3.13
2016-11-10T01:13:38.067Z,3.13
2016-11-10T01:14:38.393Z,3.09
2016-11-10T01:15:38.453Z,3.09
2016-11-10T01:16:38.438Z,3.09
2016-11-10T01:17:38.435Z,3.03
2016-11-10T01:18:38.500Z,3.05
2016-11-10T01:19:38.505Z,3.01
2016-11-10T01:20:38.486Z,2.95
2016-11-10T01:21:38.505Z,3
2016-11-10T01:22:38.528Z,2.97
2016-11-10T01:23:38.507Z,2.98
2016-11-10T01:24:38.225Z,2.98
2016-11-10T01:25:38.566Z,2.95
2016-11-10T01:26:38.569Z,2.98
2016-11-10T01:27:38.276Z,2.97
2016-11-10T01:28:39.571Z,2.98
2016-11-10T01:29:39.637Z,2.98
2016-11-10T01:30:38.672Z,2.98
2016-11-10T01:31:38.638Z,2.98
2016-11-10T01:32:38.340Z,3.08
2016-11-10T01:33:38.652Z,3.03
2016-11-10T01:34:38.361Z,3.01
2016-11-10T01:35:38.374Z,2.98
2016-11-10T01:36:38.704Z,3.03
2016-11-10T01:37:38.728Z,3.06
2016-11-10T01:38:38.728Z,3.12
2016-11-10T01:39:38.734Z,3.03
2016-11-10T01:40:38.895Z,3.11
2016-11-10T01:41:39.756Z,3.19
2016-11-10T01:42:38.867Z,2.97
2016-11-10T01:43:38.809Z,3.09
2016-11-10T01:44:38.927Z,3.11
2016-11-10T01:45:38.886Z,3.01
2016-11-10T01:46:39.825Z,2.94
2016-11-10T01:47:39.822Z,2.98
2016-11-10T01:48:38.876Z,2.93
2016-11-10T01:49:38.883Z,3
2016-11-10T01:50:38.907Z,2.98
2016-11-10T01:51:38.923Z,3.08
2016-11-10T01:52:38.930Z,3.03
2016-11-10T01:53:39.912Z,3.03
2016-11-10T01:54:38.963Z,3.09
2016-11-10T01:55:38.983Z,3.03
2016-11-10T01:56:38.981Z,2.98
2016-11-10T01:57:39.106Z,2.98
2016-11-10T01:58:39.987Z,3
2016-11-10T01:59:39.124Z,3.11
2016-11-10T02:00:40.027Z,3.03
2016-11-10T02:01:40.033Z,3.03
2016-11-10T02:02:39.131Z,3.03
2016-11-10T02:03:39.206Z,3.11
2016-11-10T02:04:39.115Z,3.03
2016-11-10T02:05:40.085Z,3.05
2016-11-10T02:06:39.797Z,3.03
2016-11-10T02:07:39.146Z,3
2016-11-10T02:08:39.153Z,3.12
2016-11-10T02:09:39.168Z,3.03
2016-11-10T02:10:39.197Z,3.03
2016-11-10T02:11:39.560Z,3.06
2016-11-10T02:12:39.312Z,3.05
2016-11-10T02:13:39.257Z,3.01
2016-11-10T02:14:40.211Z,2.95
2016-11-10T02:15:39.282Z,2.98
2016-11-10T02:16:40.248Z,2.88
2016-11-10T02:17:39.281Z,2.91
2016-11-10T02:18:40.266Z,2.94
2016-11-10T02:19:39.315Z,2.91
2016-11-10T02:20:39.333Z,2.91
2016-11-10T02:21:39.331Z,2.85
2016-11-10T02:22:39.375Z,2.85
2016-11-10T02:23:39.365Z,2.82
2016-11-10T02:24:40.055Z,2.9
2016-11-10T02:25:39.397Z,2.79
2016-11-10T02:26:40.461Z,2.9
2016-11-10T02:27:39.525Z,2.87
2016-11-10T02:28:39.278Z,2.88
2016-11-10T02:29:40.437Z,2.94
2016-11-10T02:30:39.262Z,2.87
2016-11-10T02:31:39.506Z,2.88
2016-11-10T02:32:39.512Z,2.85
2016-11-10T02:33:39.510Z,2.93
2016-11-10T02:34:39.222Z,2.85
2016-11-10T02:35:39.534Z,2.87
2016-11-10T02:36:40.513Z,2.87
2016-11-10T02:37:39.568Z,2.85
2016-11-10T02:38:39.584Z,2.95
2016-11-10T02:39:39.234Z,3
2016-11-10T02:40:39.665Z,2.83
2016-11-10T02:41:39.627Z,2.91
2016-11-10T02:42:39.675Z,2.85
2016-11-10T02:43:39.646Z,2.87
2016-11-10T02:44:39.664Z,2.83
2016-11-10T02:45:39.766Z,2.9
2016-11-10T02:46:39.705Z,2.83
2016-11-10T02:47:39.774Z,2.87
2016-11-10T02:48:39.747Z,2.88
2016-11-10T02:49:39.734Z,2.94
2016-11-10T02:50:39.756Z,2.91
2016-11-10T02:51:39.774Z,2.91
2016-11-10T02:52:39.768Z,2.88
2016-11-10T02:53:39.787Z,2.93
2016-11-10T02:54:39.811Z,2.93
2016-11-10T02:55:40.816Z,2.94
2016-11-10T02:56:39.865Z,2.83
2016-11-10T02:57:39.846Z,2.85
2016-11-10T02:58:39.855Z,2.9
2016-11-10T02:59:39.876Z,2.87
2016-11-10T03:00:40.006Z,2.88
2016-11-10T03:01:39.905Z,2.91
2016-11-10T03:02:40.016Z,2.93
2016-11-10T03:03:39.944Z,2.87
2016-11-10T03:04:39.945Z,2.87
2016-11-10T03:05:39.975Z,2.87
2016-11-10T03:06:39.981Z,2.94
2016-11-10T03:07:39.686Z,2.91
2016-11-10T03:08:39.996Z,2.93
2016-11-10T03:09:40.024Z,2.88
2016-11-10T03:10:41.124Z,2.88
2016-11-10T03:11:41.067Z,2.88
2016-11-10T03:12:40.064Z,2.87
2016-11-10T03:13:40.184Z,2.93
2016-11-10T03:14:40.099Z,2.85
2016-11-10T03:15:41.184Z,2.87
2016-11-10T03:16:40.105Z,2.87
2016-11-10T03:17:40.131Z,2.91
2016-11-10T03:18:40.146Z,2.91
2016-11-10T03:19:40.171Z,2.91
2016-11-10T03:20:41.145Z,2.88
2016-11-10T03:21:41.167Z,2.91
2016-11-10T03:22:40.870Z,2.87
2016-11-10T03:23:39.904Z,2.82
2016-11-10T03:24:40.896Z,2.79
2016-11-10T03:25:41.249Z,2.83
2016-11-10T03:26:40.264Z,2.77
2016-11-10T03:27:40.277Z,2.77
2016-11-10T03:28:40.325Z,2.8
2016-11-10T03:29:40.286Z,2.83
2016-11-10T03:30:41.284Z,2.83
2016-11-10T03:31:40.333Z,2.88
2016-11-10T03:32:41.022Z,2.82
2016-11-10T03:33:40.364Z,2.82
2016-11-10T03:34:40.394Z,2.8
2016-11-10T03:35:40.091Z,2.83
2016-11-10T03:36:40.096Z,2.79
2016-11-10T03:37:41.072Z,2.7
2016-11-10T03:38:40.432Z,2.82
2016-11-10T03:39:40.461Z,2.87
2016-11-10T03:40:41.506Z,2.87
2016-11-10T03:41:40.510Z,2.82
2016-11-10T03:42:40.526Z,2.83
2016-11-10T03:43:40.503Z,2.87
2016-11-10T03:44:39.816Z,2.85
2016-11-10T03:45:41.496Z,2.88
2016-11-10T03:46:41.514Z,2.85
2016-11-10T03:47:41.536Z,2.87
2016-11-10T03:48:40.564Z,2.8
2016-11-10T03:49:40.590Z,2.87
2016-11-10T03:50:40.581Z,2.85
2016-11-10T03:51:40.307Z,2.82
2016-11-10T03:52:40.626Z,2.87
2016-11-10T03:53:40.687Z,2.9
2016-11-10T03:54:40.346Z,2.93
2016-11-10T03:55:41.664Z,2.91
2016-11-10T03:56:40.373Z,2.94
2016-11-10T03:57:40.693Z,2.94
2016-11-10T03:58:40.754Z,2.83
2016-11-10T03:59:40.726Z,2.87
2016-11-10T04:00:40.434Z,2.93
2016-11-10T04:01:42.386Z,2.93
2016-11-10T04:02:40.759Z,2.85
2016-11-10T04:03:41.542Z,2.91
2016-11-10T04:04:40.802Z,2.93
2016-11-10T04:05:40.817Z,2.94
2016-11-10T04:06:40.809Z,3
2016-11-10T04:07:40.836Z,3
2016-11-10T04:08:40.849Z,3.03
2016-11-10T04:09:40.873Z,2.98
2016-11-10T04:10:40.972Z,3.01
2016-11-10T04:11:40.885Z,3.05
2016-11-10T04:12:40.974Z,2.93
2016-11-10T04:13:40.976Z,2.93
2016-11-10T04:14:41.602Z,2.94
2016-11-10T04:15:41.009Z,2.95
2016-11-10T04:16:40.956Z,2.93
2016-11-10T04:17:40.697Z,2.93
2016-11-10T04:18:40.996Z,2.97
2016-11-10T04:19:40.995Z,2.91
2016-11-10T04:20:40.718Z,2.87
2016-11-10T04:21:41.032Z,2.91
2016-11-10T04:22:41.047Z,2.88
2016-11-10T04:23:41.159Z,2.91
2016-11-10T04:24:41.176Z,2.85
2016-11-10T04:25:41.196Z,2.93
2016-11-10T04:26:41.161Z,2.94
2016-11-10T04:27:40.756Z,2.97
2016-11-10T04:28:41.256Z,2.95
2016-11-10T04:29:41.152Z,3.03
2016-11-10T04:30:41.826Z,3.06
2016-11-10T04:31:40.869Z,3.03
2016-11-10T04:32:42.163Z,2.97
2016-11-10T04:33:40.893Z,3
2016-11-10T04:34:41.218Z,2.97
2016-11-10T04:35:40.917Z,2.93
2016-11-10T04:36:41.250Z,2.95
2016-11-10T04:37:40.957Z,2.91
2016-11-10T04:38:41.938Z,2.93
2016-11-10T04:39:41.295Z,2.98
2016-11-10T04:40:41.071Z,2.93
2016-11-10T04:41:42.077Z,2.9
2016-11-10T04:42:41.394Z,2.88
2016-11-10T04:43:41.090Z,2.83
2016-11-10T04:44:40.975Z,2.91
2016-11-10T04:45:41.365Z,2.93
2016-11-10T04:46:41.063Z,2.94
2016-11-10T04:47:42.365Z,2.8
2016-11-10T04:48:41.426Z,2.83
2016-11-10T04:49:41.167Z,2.83
2016-11-10T04:50:42.405Z,2.94
2016-11-10T04:51:41.467Z,2.8
2016-11-10T04:52:42.447Z,2.88
2016-11-10T04:53:41.479Z,2.83
2016-11-10T04:54:41.574Z,2.85
2016-11-10T04:55:40.806Z,2.87
2016-11-10T04:56:40.948Z,2.9
2016-11-10T04:57:41.670Z,2.9
2016-11-10T04:58:41.695Z,2.85
2016-11-10T04:59:41.566Z,2.8
2016-11-10T05:00:41.579Z,2.85
2016-11-10T05:01:41.283Z,2.85
2016-11-10T05:02:41.291Z,2.8
2016-11-10T05:03:41.616Z,2.91
2016-11-10T05:04:41.639Z,2.85
2016-11-10T05:05:42.618Z,2.82
2016-11-10T05:06:41.673Z,2.88
2016-11-10T05:07:41.386Z,2.93
2016-11-10T05:08:41.392Z,2.87
2016-11-10T05:09:41.728Z,2.87
2016-11-10T05:10:41.715Z,2.95
2016-11-10T05:11:41.789Z,2.83
2016-11-10T05:12:42.723Z,2.87
2016-11-10T05:13:42.117Z,2.83
2016-11-10T05:14:41.778Z,2.8
2016-11-10T05:15:42.475Z,2.73
2016-11-10T05:16:41.802Z,2.72
2016-11-10T05:17:41.818Z,2.8
2016-11-10T05:18:41.818Z,2.76
2016-11-10T05:19:42.629Z,2.65
2016-11-10T05:20:41.797Z,2.73
2016-11-10T05:21:42.114Z,2.82
2016-11-10T05:22:42.140Z,2.8
2016-11-10T05:23:41.847Z,2.82
2016-11-10T05:24:41.537Z,2.87
2016-11-10T05:25:42.157Z,2.68
2016-11-10T05:26:41.849Z,2.85
2016-11-10T05:27:42.168Z,2.85
2016-11-10T05:28:42.177Z,2.69
2016-11-10T05:29:42.180Z,2.8
2016-11-10T05:30:43.032Z,2.93
2016-11-10T05:31:41.857Z,2.9
2016-11-10T05:32:42.178Z,2.82
2016-11-10T05:33:43.007Z,2.91
2016-11-10T05:34:42.207Z,2.85
2016-11-10T05:35:42.217Z,2.87
2016-11-10T05:36:42.195Z,2.88
2016-11-10T05:37:41.939Z,2.83
2016-11-10T05:38:41.967Z,2.85
2016-11-10T05:39:43.198Z,2.75
2016-11-10T05:40:42.246Z,2.82
2016-11-10T05:41:42.288Z,2.9
2016-11-10T05:42:43.147Z,2.87
2016-11-10T05:43:41.976Z,2.87
2016-11-10T05:44:41.949Z,2.88
2016-11-10T05:45:42.273Z,2.83
2016-11-10T05:46:42.289Z,2.8
2016-11-10T05:47:41.872Z,2.75
2016-11-10T05:48:42.294Z,2.75
2016-11-10T05:49:43.499Z,2.7
2016-11-10T05:50:41.609Z,2.68
2016-11-10T05:51:43.037Z,2.73
2016-11-10T05:52:43.307Z,2.85
2016-11-10T05:53:42.331Z,2.72
2016-11-10T05:54:42.026Z,2.72
2016-11-10T05:55:42.369Z,2.73
2016-11-10T05:56:42.387Z,2.72
2016-11-10T05:57:43.367Z,2.76
2016-11-10T05:58:42.400Z,2.83
2016-11-10T05:59:43.392Z,2.7
2016-11-10T06:00:42.127Z,2.72
2016-11-10T06:01:42.437Z,2.72
2016-11-10T06:02:42.147Z,2.8
2016-11-10T06:03:43.437Z,2.68
2016-11-10T06:04:42.488Z,2.65
2016-11-10T06:05:42.496Z,2.76
2016-11-10T06:06:42.219Z,2.7
2016-11-10T06:07:42.523Z,2.88
2016-11-10T06:08:42.243Z,2.7
2016-11-10T06:09:42.581Z,2.77
2016-11-10T06:10:42.569Z,2.79
2016-11-10T06:11:42.589Z,2.77
2016-11-10T06:12:43.629Z,2.82
2016-11-10T06:13:42.668Z,2.82
2016-11-10T06:14:42.627Z,2.77
2016-11-10T06:15:43.299Z,2.72
2016-11-10T06:16:42.651Z,2.79
2016-11-10T06:17:42.405Z,2.77
2016-11-10T06:18:42.368Z,2.83
2016-11-10T06:19:42.379Z,2.76
2016-11-10T06:20:43.674Z,2.75
2016-11-10T06:21:42.774Z,2.79
2016-11-10T06:22:42.428Z,2.75
2016-11-10T06:23:42.758Z,2.77
2016-11-10T06:24:42.767Z,2.75
2016-11-10T06:25:42.786Z,2.77
2016-11-10T06:26:42.791Z,2.82
2016-11-10T06:27:42.505Z,2.82
2016-11-10T06:28:42.842Z,2.77
2016-11-10T06:29:42.847Z,2.85
2016-11-10T06:30:42.847Z,2.8
2016-11-10T06:31:42.856Z,2.93
2016-11-10T06:32:42.877Z,2.88
2016-11-10T06:33:42.909Z,2.88
2016-11-10T06:34:42.904Z,2.82
2016-11-10T06:35:42.915Z,2.9
2016-11-10T06:36:42.938Z,2.82
2016-11-10T06:37:43.018Z,2.77
2016-11-10T06:38:43.066Z,2.7
2016-11-10T06:39:42.968Z,2.87
2016-11-10T06:40:43.006Z,2.87
2016-11-10T06:41:43.056Z,2.87
2016-11-10T06:42:43.047Z,2.83
2016-11-10T06:43:43.038Z,2.85
2016-11-10T06:44:43.034Z,2.9
2016-11-10T06:45:42.854Z,2.82
2016-11-10T06:46:43.072Z,2.85
2016-11-10T06:47:43.066Z,2.7
2016-11-10T06:48:43.099Z,2.8
2016-11-10T06:49:43.117Z,2.75
2016-11-10T06:50:43.141Z,2.75
2016-11-10T06:51:43.166Z,2.83
2016-11-10T06:52:43.155Z,2.79
2016-11-10T06:53:43.227Z,2.79
2016-11-10T06:54:43.194Z,2.9
2016-11-10T06:55:43.201Z,2.88
2016-11-10T06:56:44.186Z,2.88
2016-11-10T06:57:43.226Z,2.94
2016-11-10T06:58:43.248Z,3
2016-11-10T06:59:42.975Z,3.03
2016-11-10T07:00:43.102Z,3.03
2016-11-10T07:01:43.287Z,2.98
2016-11-10T07:02:43.288Z,2.97
2016-11-10T07:03:43.308Z,3.03
2016-11-10T07:04:42.986Z,2.98
2016-11-10T07:05:44.299Z,3.01
2016-11-10T07:06:43.426Z,2.95
2016-11-10T07:07:43.063Z,2.97
2016-11-10T07:08:44.349Z,2.98
2016-11-10T07:09:43.436Z,2.95
2016-11-10T07:10:43.145Z,2.93
2016-11-10T07:11:44.446Z,2.98
2016-11-10T07:12:43.469Z,3.08
2016-11-10T07:13:43.143Z,3
2016-11-10T07:14:43.483Z,3.03
2016-11-10T07:15:44.148Z,3.03
2016-11-10T07:16:43.487Z,3.03
2016-11-10T07:17:43.182Z,3.21
2016-11-10T07:18:44.482Z,3.18
2016-11-10T07:19:43.308Z,3.19
2016-11-10T07:20:43.224Z,3.24
2016-11-10T07:21:43.647Z,3.18
2016-11-10T07:22:43.569Z,3.21
2016-11-10T07:23:43.618Z,3.22
2016-11-10T07:24:43.626Z,3.33
2016-11-10T07:25:43.744Z,3.24
2016-11-10T07:26:44.396Z,3.24
2016-11-10T07:27:43.647Z,3.21
2016-11-10T07:28:44.636Z,3.15
2016-11-10T07:29:43.674Z,3.19
2016-11-10T07:30:43.666Z,3.22
2016-11-10T07:31:43.708Z,3.26
2016-11-10T07:32:44.696Z,3.21
2016-11-10T07:33:44.395Z,3.26
2016-11-10T07:34:43.731Z,3.16
2016-11-10T07:35:43.748Z,3.16
2016-11-10T07:36:43.773Z,3.15
2016-11-10T07:37:43.593Z,3.05
2016-11-10T07:38:43.804Z,3.16
2016-11-10T07:39:44.829Z,3.16
2016-11-10T07:40:43.821Z,3.24
2016-11-10T07:41:43.899Z,3.16
2016-11-10T07:42:44.827Z,3.21
2016-11-10T07:43:44.840Z,3.3
2016-11-10T07:44:43.871Z,3.3
2016-11-10T07:45:43.597Z,3.27
2016-11-10T07:46:43.903Z,3.26
2016-11-10T07:47:44.897Z,3.27
2016-11-10T07:48:43.666Z,3.21
2016-11-10T07:49:45.037Z,3.27
2016-11-10T07:50:43.967Z,3.29
2016-11-10T07:51:43.980Z,3.11
2016-11-10T07:52:44.138Z,3.22
2016-11-10T07:53:44.006Z,3.26
2016-11-10T07:54:45.107Z,3.16
2016-11-10T07:55:44.039Z,3.16
2016-11-10T07:56:45.055Z,3.13
2016-11-10T07:57:43.768Z,3.22
2016-11-10T07:58:43.762Z,3.22
2016-11-10T07:59:45.076Z,3.29
2016-11-10T08:00:45.092Z,3.19
2016-11-10T08:01:44.132Z,3.27
2016-11-10T08:02:45.124Z,3.22
2016-11-10T08:03:45.137Z,3.29
2016-11-10T08:04:44.180Z,3.21
2016-11-10T08:05:45.316Z,3.29
2016-11-10T08:06:45.196Z,3.41
2016-11-10T08:07:45.357Z,3.41
2016-11-10T08:08:44.239Z,3.46
2016-11-10T08:09:44.358Z,3.37
2016-11-10T08:10:44.263Z,3.34
2016-11-10T08:11:44.269Z,3.41
2016-11-10T08:12:44.289Z,3.49
2016-11-10T08:13:44.307Z,3.46
2016-11-10T08:14:44.305Z,3.55
2016-11-10T08:15:44.321Z,3.55
2016-11-10T08:16:44.343Z,3.52
2016-11-10T08:17:45.428Z,3.66
2016-11-10T08:18:45.348Z,3.59
2016-11-10T08:19:44.391Z,3.66
2016-11-10T08:20:44.081Z,3.64
2016-11-10T08:21:45.457Z,3.59
2016-11-10T08:22:44.437Z,3.59
2016-11-10T08:23:44.444Z,3.64
2016-11-10T08:24:44.471Z,3.48
2016-11-10T08:25:45.447Z,3.48
2016-11-10T08:26:45.495Z,3.5
2016-11-10T08:27:44.196Z,3.59
2016-11-10T08:28:44.515Z,3.58
2016-11-10T08:29:44.532Z,3.61
2016-11-10T08:30:44.544Z,3.64
2016-11-10T08:31:44.598Z,3.66
2016-11-10T08:32:44.577Z,3.63
2016-11-10T08:33:44.703Z,3.74
2016-11-10T08:34:45.575Z,3.77
2016-11-10T08:35:44.323Z,3.77
2016-11-10T08:36:45.295Z,3.84
2016-11-10T08:37:45.616Z,3.82
2016-11-10T08:38:44.651Z,3.85
2016-11-10T08:39:44.687Z,3.88
2016-11-10T08:40:45.666Z,3.85
2016-11-10T08:41:44.415Z,3.78
2016-11-10T08:42:44.767Z,3.78
2016-11-10T08:43:44.435Z,3.78
2016-11-10T08:44:44.746Z,3.92
2016-11-10T08:45:44.765Z,3.91
2016-11-10T08:46:44.392Z,3.77
2016-11-10T08:47:44.797Z,3.85
2016-11-10T08:48:44.815Z,3.78
2016-11-10T08:49:44.874Z,3.84
2016-11-10T08:50:44.956Z,3.86
2016-11-10T08:51:44.862Z,3.86
2016-11-10T08:52:44.955Z,3.89
2016-11-10T08:53:44.879Z,3.78
2016-11-10T08:54:44.947Z,3.85
2016-11-10T08:55:44.914Z,3.73
2016-11-10T08:56:45.888Z,3.74
2016-11-10T08:57:45.902Z,3.77
2016-11-10T08:58:44.964Z,3.89
2016-11-10T08:59:44.963Z,4
2016-11-10T09:00:44.981Z,3.88
2016-11-10T09:01:44.687Z,3.95
2016-11-10T09:02:45.155Z,3.85
2016-11-10T09:03:44.722Z,3.92
2016-11-10T09:04:46.026Z,3.91
2016-11-10T09:05:45.125Z,3.95
2016-11-10T09:06:45.106Z,4.06
2016-11-10T09:07:45.757Z,4.02
2016-11-10T09:08:45.126Z,4.07
2016-11-10T09:09:46.082Z,4.06
2016-11-10T09:10:44.845Z,4.06
2016-11-10T09:11:44.844Z,4.07
2016-11-10T09:12:46.133Z,4.03
2016-11-10T09:13:45.193Z,4.06
2016-11-10T09:14:45.195Z,4.06
2016-11-10T09:15:46.166Z,4.03
2016-11-10T09:16:45.232Z,4.09
2016-11-10T09:17:45.343Z,4.16
2016-11-10T09:18:46.000Z,4.07
2016-11-10T09:19:45.353Z,4.09
2016-11-10T09:20:45.275Z,4.04
2016-11-10T09:21:45.304Z,4.03
2016-11-10T09:22:45.307Z,4.02
2016-11-10T09:23:44.990Z,4.02
2016-11-10T09:24:45.356Z,4
2016-11-10T09:25:45.378Z,3.95
2016-11-10T09:26:45.372Z,3.94
2016-11-10T09:27:45.068Z,3.99
2016-11-10T09:28:45.403Z,4.04
2016-11-10T09:29:45.412Z,4
2016-11-10T09:30:46.082Z,4.03
2016-11-10T09:31:45.075Z,4.03
2016-11-10T09:32:45.453Z,3.99
2016-11-10T09:33:46.575Z,4.04
2016-11-10T09:34:45.480Z,4.09
2016-11-10T09:35:45.205Z,4.12
2016-11-10T09:36:45.203Z,4.13
2016-11-10T09:37:46.195Z,4.07
2016-11-10T09:38:45.551Z,4.13
2016-11-10T09:39:45.173Z,4.31
2016-11-10T09:40:45.584Z,4.28
2016-11-10T09:41:45.592Z,4.31
2016-11-10T09:42:46.581Z,4.36
2016-11-10T09:43:45.382Z,4.38
2016-11-10T09:44:45.318Z,4.38
2016-11-10T09:45:45.641Z,4.4
2016-11-10T09:46:45.660Z,4.42
2016-11-10T09:47:45.365Z,4.4
2016-11-10T09:48:45.829Z,4.36
2016-11-10T09:49:46.674Z,4.27
2016-11-10T09:50:45.741Z,4.43
2016-11-10T09:51:45.838Z,4.34
2016-11-10T09:52:45.733Z,4.39
2016-11-10T09:53:45.770Z,4.3
2016-11-10T09:54:45.782Z,4.22
2016-11-10T09:55:45.794Z,4.31
2016-11-10T09:56:45.523Z,4.27
2016-11-10T09:57:45.504Z,4.22
2016-11-10T09:58:45.843Z,4.25
2016-11-10T09:59:45.869Z,4.28
2016-11-10T10:00:45.855Z,4.34
2016-11-10T10:01:46.045Z,4.39
2016-11-10T10:02:45.203Z,4.43
2016-11-10T10:03:45.923Z,4.38
2016-11-10T10:04:45.923Z,4.4
2016-11-10T10:05:45.966Z,4.34
2016-11-10T10:06:46.934Z,4.45
2016-11-10T10:07:46.307Z,4.36
2016-11-10T10:08:47.248Z,4.5
2016-11-10T10:09:46.254Z,4.38
2016-11-10T10:10:46.273Z,4.39
2016-11-10T10:11:46.324Z,4.45
2016-11-10T10:12:46.092Z,4.4
2016-11-10T10:13:45.943Z,4.45
2016-11-10T10:14:46.483Z,4.4
2016-11-10T10:15:46.305Z,4.52
2016-11-10T10:16:47.588Z,4.58
2016-11-10T10:17:47.291Z,4.49
2016-11-10T10:18:46.183Z,4.6
2016-11-10T10:19:46.324Z,4.67
2016-11-10T10:20:46.466Z,4.74
2016-11-10T10:21:47.356Z,4.78
2016-11-10T10:22:46.505Z,4.71
2016-11-10T10:23:46.342Z,4.82
2016-11-10T10:24:46.470Z,4.78
2016-11-10T10:25:46.395Z,4.79
2016-11-10T10:26:46.143Z,4.75
2016-11-10T10:27:47.043Z,4.78
2016-11-10T10:28:46.083Z,4.78
2016-11-10T10:29:46.065Z,4.78
2016-11-10T10:30:46.002Z,4.7
2016-11-10T10:31:46.425Z,4.71
2016-11-10T10:32:46.382Z,4.71
2016-11-10T10:33:46.094Z,4.75
2016-11-10T10:34:46.067Z,4.64
2016-11-10T10:35:46.284Z,4.71
2016-11-10T10:36:46.465Z,4.67
2016-11-10T10:37:47.537Z,4.61
2016-11-10T10:38:47.423Z,4.61
2016-11-10T10:39:46.354Z,4.61
2016-11-10T10:40:46.471Z,4.68
2016-11-10T10:41:46.692Z,4.66
2016-11-10T10:42:46.190Z,4.61
2016-11-10T10:43:46.625Z,4.63
2016-11-10T10:44:46.644Z,4.64
2016-11-10T10:45:47.534Z,4.48
2016-11-10T10:46:46.574Z,4.5
2016-11-10T10:47:46.265Z,4.38
2016-11-10T10:48:46.284Z,4.43
2016-11-10T10:49:46.606Z,4.42
2016-11-10T10:50:46.634Z,4.39
2016-11-10T10:51:46.638Z,4.45
2016-11-10T10:52:46.352Z,4.46
2016-11-10T10:53:46.350Z,4.43
2016-11-10T10:54:46.359Z,4.39
2016-11-10T10:55:46.693Z,4.34
2016-11-10T10:56:46.714Z,4.49
2016-11-10T10:57:46.758Z,4.43
2016-11-10T10:58:47.734Z,4.48
2016-11-10T10:59:46.450Z,4.45
2016-11-10T11:00:46.467Z,4.57
2016-11-10T11:01:46.525Z,4.64
2016-11-10T11:02:47.784Z,4.74
2016-11-10T11:03:47.809Z,4.84
2016-11-10T11:04:47.502Z,4.74
2016-11-10T11:05:46.852Z,4.94
2016-11-10T11:06:46.849Z,4.87
2016-11-10T11:07:46.867Z,4.92
2016-11-10T11:08:46.593Z,5.04
2016-11-10T11:09:46.931Z,5.02
2016-11-10T11:10:46.933Z,5.02
2016-11-10T11:11:47.081Z,5.04
2016-11-10T11:12:46.998Z,5.07
2016-11-10T11:13:47.002Z,5.04
2016-11-10T11:14:47.115Z,5.01
2016-11-10T11:15:46.806Z,4.97
2016-11-10T11:16:46.715Z,4.98
2016-11-10T11:17:46.763Z,4.9
2016-11-10T11:18:48.022Z,4.98
2016-11-10T11:19:47.073Z,4.95
2016-11-10T11:20:47.083Z,4.95
2016-11-10T11:21:48.076Z,4.89
2016-11-10T11:22:46.842Z,4.9
2016-11-10T11:23:46.806Z,4.89
2016-11-10T11:24:47.813Z,4.95
2016-11-10T11:25:47.174Z,4.95
2016-11-10T11:26:47.173Z,5.02
2016-11-10T11:27:47.183Z,5.05
2016-11-10T11:28:46.902Z,5
2016-11-10T11:29:47.877Z,4.98
2016-11-10T11:30:46.970Z,5.02
2016-11-10T11:31:47.284Z,5.16
2016-11-10T11:32:47.320Z,5.15
2016-11-10T11:33:48.251Z,5.26
2016-11-10T11:34:47.315Z,5.34
2016-11-10T11:35:47.297Z,5.29
2016-11-10T11:36:47.325Z,5.34
2016-11-10T11:37:47.331Z,5.4
2016-11-10T11:38:47.352Z,5.41
2016-11-10T11:39:47.504Z,5.52
2016-11-10T11:40:47.006Z,5.51
2016-11-10T11:41:47.109Z,5.43
2016-11-10T11:42:48.423Z,5.49
2016-11-10T11:43:47.506Z,5.49
2016-11-10T11:44:47.523Z,5.58
2016-11-10T11:45:47.523Z,5.58
2016-11-10T11:46:47.485Z,5.55
2016-11-10T11:47:47.505Z,5.47
2016-11-10T11:48:47.511Z,5.55
2016-11-10T11:49:48.504Z,5.51
2016-11-10T11:50:47.546Z,5.55
2016-11-10T11:51:47.571Z,5.43
2016-11-10T11:52:47.711Z,5.4
2016-11-10T11:53:47.606Z,5.43
2016-11-10T11:54:47.648Z,5.43
2016-11-10T11:55:47.790Z,5.46
2016-11-10T11:56:47.655Z,5.46
2016-11-10T11:57:47.710Z,5.47
2016-11-10T11:58:47.690Z,5.46
2016-11-10T11:59:47.736Z,5.43
2016-11-10T12:00:47.744Z,5.43
2016-11-10T12:01:47.716Z,5.43
2016-11-10T12:02:48.714Z,5.43
2016-11-10T12:03:47.749Z,5.44
2016-11-10T12:04:47.775Z,5.46
2016-11-10T12:05:47.782Z,5.29
2016-11-10T12:06:47.804Z,5.29
2016-11-10T12:07:48.789Z,5.23
2016-11-10T12:08:47.854Z,5.22
2016-11-10T12:09:48.513Z,5.22
2016-11-10T12:10:48.616Z,5.26
2016-11-10T12:11:47.875Z,5.29
2016-11-10T12:12:47.934Z,5.31
2016-11-10T12:13:47.954Z,5.37
2016-11-10T12:14:47.933Z,5.4
2016-11-10T12:15:47.627Z,5.36
2016-11-10T12:16:47.965Z,5.34
2016-11-10T12:17:47.971Z,5.46
2016-11-10T12:18:48.956Z,5.44
2016-11-10T12:19:48.015Z,5.36
2016-11-10T12:20:48.008Z,5.33
2016-11-10T12:21:48.042Z,5.43
2016-11-10T12:22:49.134Z,5.33
2016-11-10T12:23:49.100Z,5.29
2016-11-10T12:24:47.773Z,5.43
2016-11-10T12:25:48.123Z,5.43
2016-11-10T12:26:48.108Z,5.34
2016-11-10T12:27:48.224Z,5.49
2016-11-10T12:28:48.166Z,5.43
2016-11-10T12:29:48.172Z,5.4
2016-11-10T12:30:48.171Z,5.41
2016-11-10T12:31:47.873Z,5.34
2016-11-10T12:32:49.186Z,5.31
2016-11-10T12:33:48.215Z,5.46
2016-11-10T12:34:47.934Z,5.29
2016-11-10T12:35:48.257Z,5.36
2016-11-10T12:36:47.953Z,5.36
2016-11-10T12:37:48.293Z,5.34
2016-11-10T12:38:48.109Z,5.31
2016-11-10T12:39:48.323Z,5.4
2016-11-10T12:40:48.333Z,5.4
2016-11-10T12:41:49.325Z,5.49
2016-11-10T12:42:48.443Z,5.47
2016-11-10T12:43:48.076Z,5.47
2016-11-10T12:44:48.094Z,5.49
2016-11-10T12:45:49.375Z,5.47
2016-11-10T12:46:48.450Z,5.46
2016-11-10T12:47:48.447Z,5.43
2016-11-10T12:48:48.444Z,5.44
2016-11-10T12:49:48.474Z,5.46
2016-11-10T12:50:48.189Z,5.43
2016-11-10T12:51:49.472Z,5.41
2016-11-10T12:52:48.516Z,5.43
2016-11-10T12:53:49.514Z,5.43
2016-11-10T12:54:48.552Z,5.28
2016-11-10T12:55:48.884Z,5.29
2016-11-10T12:56:48.294Z,5.23
2016-11-10T12:57:48.314Z,5.28
2016-11-10T12:58:48.626Z,5.15
2016-11-10T12:59:49.613Z,5.18
2016-11-10T13:00:48.644Z,5.15
2016-11-10T13:01:48.295Z,5.1
2016-11-10T13:02:48.699Z,5.02
2016-11-10T13:03:48.704Z,5.1
2016-11-10T13:04:49.675Z,5.07
2016-11-10T13:05:49.766Z,4.97
2016-11-10T13:06:48.742Z,5.07
2016-11-10T13:07:48.520Z,5.07
2016-11-10T13:08:48.774Z,5.04
2016-11-10T13:09:48.785Z,4.92
2016-11-10T13:10:49.792Z,4.95
2016-11-10T13:11:48.427Z,4.94
2016-11-10T13:12:48.526Z,4.87
2016-11-10T13:13:48.854Z,4.94
2016-11-10T13:14:49.835Z,4.9
2016-11-10T13:15:49.854Z,4.98
2016-11-10T13:16:49.008Z,4.98
2016-11-10T13:17:48.929Z,5.12
2016-11-10T13:18:48.958Z,5.16
2016-11-10T13:19:48.947Z,5.15
2016-11-10T13:20:48.961Z,5.1
2016-11-10T13:21:49.954Z,4.97
2016-11-10T13:22:48.693Z,5.02